Pagina principale
METAR-TAF:

METAR-TAF

Aeroporti :

Pécs, Ungheria

latitudine: 46-06N, longitudine: 018-14E, altezza: 201 m

Osservazione

Il bollettino è stato emesso 59 minuti fa, alle 15:15 UTC
Vento 14 kt da ovest/sud-ovest, variando fra sud-ovest e ovest
Temperature 26°C
Umidità 24%
Pressione 1007 hPa
Visibilità 10 km o più
nessuna nube inferiore a 1500 m e nessun cumulonembo

METAR: LHPP 151515Z AUTO 25014KT 220V280 CAVOK 26/04 Q1007

Ora: 18:14 (16:14 UTC)

Previsione

Il bollettino è stato emesso 1 ora e 59 minuti fa, alle 14:15 UTC
Previsione valida dal 15 alle 15 UTC al 15 alle 24 UTC
Vento 15 kt da ovest/sud-ovest con raffiche fino a 25 kt
Visibilità 10 km o più
nessuna nube inferiore a 1500 m e nessun cumulonembo
Evoluzione graduale
dal 15 alle 15 UTC al 15 alle 18 UTC
Vento 8 kt da sud-ovest

TAF: LHPP 151415Z 1515/1524 25015G25KT CAVOK BECMG 1515/1518 22008KT

Osservazioni e previsioni meteorologiche di più di 4000 aeroporti (messaggi METAR e TAF).

Le stazioni disponibili sono rappresentate dai dischi gialli e rossi sulla carta.

Puntare il mouse per vedere il nome della stazione.

Clicca sopra per visualizzare le osservazioni e previsioni meteorologiche.

Per cambiare la mappa : fare clic sui pulsanti verdi con una croce nera per ingrandire, il pulsante verde con un trattino per diminuire, o sulla freccia verde per le mappe adiacenti.


METAR-TAF: